Time,TemperatureF,DewpointF,PressureIn,WindDirection,WindDirectionDegrees,WindSpeedMPH,WindSpeedGustMPH,Humidity,HourlyPrecipIn,Conditions,Clouds,dailyrainin,SoftwareType,DateUTC
2013-07-03 00:00:00,71.5,68.4,30.01,SSW,196,0.0,0.0,90,0.00,,FEW120,0.01,VWS V14.01,2013-07-03 04:00:00,
2013-07-03 00:01:00,71.3,68.2,30.01,SSW,196,0.0,0.0,90,0.00,,FEW120,0.00,VWS V14.01,2013-07-03 04:01:00,
2013-07-03 00:02:00,71.3,68.2,30.01,SSW,196,0.0,0.0,90,0.00,,FEW120,0.00,VWS V14.01,2013-07-03 04:02:00,
2013-07-03 00:03:00,71.3,68.2,30.01,SSW,196,0.0,0.0,90,0.00,,FEW120,0.00,VWS V14.01,2013-07-03 04:03:00,
2013-07-03 00:04:00,71.3,68.2,30.01,SSW,196,0.0,0.0,90,0.00,,FEW120,0.00,VWS V14.01,2013-07-03 04:04:00,
2013-07-03 00:09:00,71.1,68.0,30.01,SSW,196,0.0,0.0,90,0.00,,FEW120,0.00,VWS V14.01,2013-07-03 04:09:00,
2013-07-03 00:14:00,70.9,67.8,30.00,SSW,196,0.0,0.0,90,0.00,,FEW120,0.00,VWS V14.01,2013-07-03 04:14:00,
2013-07-03 00:15:00,70.9,67.8,30.00,SSW,196,0.0,0.0,90,0.00,,OVC018,0.00,VWS V14.01,2013-07-03 04:15:00,
2013-07-03 00:19:00,70.9,67.8,30.00,SSW,196,0.0,0.0,90,0.00,,FEW120,0.00,VWS V14.01,2013-07-03 04:19:00,
2013-07-03 00:24:00,70.9,67.8,30.00,SSW,196,0.0,0.0,90,0.00,,FEW120,0.00,VWS V14.01,2013-07-03 04:24:00,
2013-07-03 00:29:00,70.8,67.7,30.01,SSW,196,0.0,0.0,90,0.00,,FEW120,0.00,VWS V14.01,2013-07-03 04:29:00,
2013-07-03 00:30:00,70.8,67.7,30.01,SSW,196,0.0,0.0,90,0.00,,OVC018,0.00,VWS V14.01,2013-07-03 04:30:00,
2013-07-03 00:31:00,70.8,67.7,30.01,SSW,196,0.0,0.0,90,0.00,,FEW120,0.00,VWS V14.01,2013-07-03 04:31:00,
2013-07-03 00:32:00,70.8,67.7,30.01,SSW,196,0.0,0.0,90,0.00,,SCT120,0.00,VWS V14.01,2013-07-03 04:32:00,
2013-07-03 00:37:00,70.6,67.8,30.01,SSW,196,0.0,0.0,91,0.00,,SCT120,0.00,VWS V14.01,2013-07-03 04:37:00,
2013-07-03 00:42:00,70.6,67.8,30.01,SSW,196,0.0,0.0,91,0.00,,SCT120,0.00,VWS V14.01,2013-07-03 04:42:00,
2013-07-03 00:45:00,70.6,67.8,30.01,SSW,196,0.0,0.0,91,0.00,,SCT120,0.00,VWS V14.01,2013-07-03 04:45:00,
2013-07-03 00:46:00,70.6,67.8,30.01,SSW,196,0.0,0.0,91,0.00,,SCT120,0.00,VWS V14.01,2013-07-03 04:46:00,
2013-07-03 00:51:00,70.6,67.8,30.01,SSW,196,0.0,0.0,91,0.00,,SCT120,0.00,VWS V14.01,2013-07-03 04:51:00,
2013-07-03 00:53:00,70.6,67.8,30.01,SSW,196,0.0,0.0,91,0.00,,SCT120,0.00,VWS V14.01,2013-07-03 04:53:00,
2013-07-03 00:58:00,70.4,67.7,30.01,SSW,196,0.0,0.0,91,0.00,,SCT120,0.00,VWS V14.01,2013-07-03 04:58:00,
2013-07-03 01:00:00,70.4,67.7,30.01,SSW,196,0.0,0.0,91,0.00,,OVC018,0.00,VWS V14.01,2013-07-03 05:00:00,
2013-07-03 01:03:00,70.4,67.7,30.01,SSW,196,0.0,0.0,91,0.00,,,0.00,VWS V14.01,2013-07-03 05:03:00,
2013-07-03 01:07:00,70.4,68.0,30.01,SSW,196,0.0,0.0,92,0.00,,,0.00,VWS V14.01,2013-07-03 05:07:00,
2013-07-03 01:12:00,70.4,68.0,30.01,SSW,196,0.0,0.0,92,0.00,,,0.00,VWS V14.01,2013-07-03 05:12:00,
2013-07-03 01:15:00,70.4,68.0,30.01,SSW,196,0.0,0.0,92,0.00,,OVC018,0.00,VWS V14.01,2013-07-03 05:15:00,
2013-07-03 01:17:00,70.4,68.0,30.01,SSW,196,0.0,0.0,92,0.00,,,0.00,VWS V14.01,2013-07-03 05:17:00,
2013-07-03 01:19:00,70.4,68.0,30.01,SSW,196,0.0,0.0,92,0.00,,,0.00,VWS V14.01,2013-07-03 05:19:00,
2013-07-03 01:24:00,70.4,68.0,30.01,SSW,196,0.0,0.0,92,0.00,,,0.00,VWS V14.01,2013-07-03 05:24:00,
2013-07-03 01:29:00,70.3,67.9,30.01,SSW,196,0.0,0.0,92,0.00,,,0.00,VWS V14.01,2013-07-03 05:29:00,
2013-07-03 01:30:00,70.3,67.9,30.01,SSW,196,0.0,0.0,92,0.00,,OVC018,0.00,VWS V14.01,2013-07-03 05:30:00,
2013-07-03 01:34:00,70.3,67.9,30.01,SSW,196,0.0,0.0,92,0.00,,,0.00,VWS V14.01,2013-07-03 05:34:00,
2013-07-03 01:39:00,70.4,68.0,30.01,SSW,196,0.0,0.0,92,0.00,,,0.00,VWS V14.01,2013-07-03 05:39:00,
2013-07-03 01:44:00,70.4,68.0,30.01,SSW,196,0.0,0.0,92,0.00,,,0.00,VWS V14.01,2013-07-03 05:44:00,
2013-07-03 01:45:00,70.4,68.0,30.01,SSW,196,0.0,0.0,92,0.00,,OVC018,0.00,VWS V14.01,2013-07-03 05:45:00,
2013-07-03 01:49:00,70.4,68.0,30.01,SSW,196,0.0,0.0,92,0.00,,,0.00,VWS V14.01,2013-07-03 05:49:00,
2013-07-03 01:54:00,70.4,68.0,30.01,SSW,196,0.0,0.0,92,0.00,,,0.00,VWS V14.01,2013-07-03 05:54:00,
2013-07-03 01:57:00,70.3,67.9,30.01,SSW,196,0.0,0.0,92,0.00,,,0.00,VWS V14.01,2013-07-03 05:57:00,
2013-07-03 01:58:00,70.3,67.9,30.01,SSW,196,0.0,0.0,92,0.00,,,0.00,VWS V14.01,2013-07-03 05:58:00,
2013-07-03 02:00:00,70.3,67.9,30.01,SSW,196,0.0,0.0,92,0.00,,OVC018,0.00,VWS V14.01,2013-07-03 06:00:00,
2013-07-03 02:03:00,70.3,68.2,30.01,SSW,196,0.0,0.0,93,0.00,,,0.00,VWS V14.01,2013-07-03 06:03:00,
2013-07-03 02:08:00,70.4,68.3,30.01,SSW,196,0.0,0.0,93,0.00,,,0.00,VWS V14.01,2013-07-03 06:08:00,
2013-07-03 02:13:00,70.4,68.3,30.01,SSW,196,0.0,0.0,93,0.00,,,0.00,VWS V14.01,2013-07-03 06:13:00,
2013-07-03 02:15:00,70.4,68.3,30.01,SSW,196,0.0,0.0,93,0.00,,OVC018,0.00,VWS V14.01,2013-07-03 06:15:00,
2013-07-03 02:16:00,70.4,68.3,30.01,SSW,196,0.0,0.0,93,0.00,,,0.00,VWS V14.01,2013-07-03 06:16:00,
2013-07-03 02:18:00,70.4,68.3,30.01,SSW,196,0.0,0.0,93,0.00,,,0.00,VWS V14.01,2013-07-03 06:18:00,
2013-07-03 02:22:00,70.4,68.3,30.01,SSW,196,0.0,0.0,93,0.00,,,0.00,VWS V14.01,2013-07-03 06:22:00,
2013-07-03 02:24:00,70.3,68.2,30.01,SSW,196,0.0,0.0,93,0.00,,,0.00,VWS V14.01,2013-07-03 06:24:00,
2013-07-03 02:26:00,70.3,68.2,30.01,SSW,196,0.0,0.0,93,0.00,,,0.00,VWS V14.01,2013-07-03 06:26:00,
2013-07-03 02:30:00,70.3,68.2,30.01,SSW,196,0.0,0.0,93,0.00,,OVC018,0.00,VWS V14.01,2013-07-03 06:30:00,
2013-07-03 02:31:00,70.3,68.2,30.01,SSW,196,0.0,0.0,93,0.00,,,0.00,VWS V14.01,2013-07-03 06:31:00,
2013-07-03 02:32:00,70.3,68.2,30.01,SSW,196,0.0,0.0,93,0.00,,,0.00,VWS V14.01,2013-07-03 06:32:00,
2013-07-03 02:38:00,70.3,68.2,30.01,SSW,196,0.0,0.0,93,0.00,,,0.00,VWS V14.01,2013-07-03 06:38:00,
2013-07-03 02:43:00,70.3,68.2,30.01,SSW,196,0.0,0.0,93,0.00,,,0.00,VWS V14.01,2013-07-03 06:43:00,
2013-07-03 02:45:00,70.3,68.2,30.01,SSW,196,0.0,0.0,93,0.00,,OVC018,0.00,VWS V14.01,2013-07-03 06:45:00,
2013-07-03 02:49:00,70.1,68.0,30.01,SSW,196,0.0,0.0,93,0.00,,,0.00,VWS V14.01,2013-07-03 06:49:00,
2013-07-03 02:54:00,69.9,67.8,30.01,SSW,196,0.0,0.0,93,0.00,,,0.00,VWS V14.01,2013-07-03 06:54:00,
2013-07-03 02:56:00,69.9,67.8,30.01,SSW,196,0.0,0.0,93,0.00,,,0.00,VWS V14.01,2013-07-03 06:56:00,
2013-07-03 03:00:00,69.9,67.8,30.01,SSW,196,0.0,0.0,93,0.00,,OVC018,0.00,VWS V14.01,2013-07-03 07:00:00,
2013-07-03 03:02:00,69.8,67.7,30.01,SSW,196,0.0,0.0,93,0.00,,,0.00,VWS V14.01,2013-07-03 07:02:00,
2013-07-03 03:07:00,69.8,67.7,30.01,SSW,196,0.0,0.0,93,0.00,,BKN110,0.00,VWS V14.01,2013-07-03 07:07:00,
2013-07-03 03:12:00,69.6,67.5,30.01,SSW,196,0.0,0.0,93,0.00,,BKN110,0.00,VWS V14.01,2013-07-03 07:12:00,
2013-07-03 03:15:00,69.6,67.5,30.01,SSW,196,0.0,0.0,93,0.00,,OVC018,0.00,VWS V14.01,2013-07-03 07:15:00,
2013-07-03 03:16:00,69.6,67.5,30.01,SSW,196,0.0,0.0,93,0.00,,BKN110,0.00,VWS V14.01,2013-07-03 07:16:00,
2013-07-03 03:21:00,69.4,67.3,30.01,SSW,196,0.0,0.0,93,0.00,,BKN110,0.00,VWS V14.01,2013-07-03 07:21:00,
2013-07-03 03:26:00,69.4,67.3,30.01,SSW,196,0.0,0.0,93,0.00,,BKN110,0.00,VWS V14.01,2013-07-03 07:26:00,
2013-07-03 03:30:00,69.3,67.2,30.01,SSW,196,0.0,0.0,93,0.00,,OVC018,0.00,VWS V14.01,2013-07-03 07:30:00,
2013-07-03 03:31:00,69.3,67.2,30.01,SSW,196,0.0,0.0,93,0.00,,BKN110,0.00,VWS V14.01,2013-07-03 07:31:00,
2013-07-03 03:36:00,69.1,67.0,30.01,SSW,196,0.0,0.0,93,0.00,,BKN110,0.00,VWS V14.01,2013-07-03 07:36:00,
2013-07-03 03:40:00,68.9,66.8,30.01,SSW,196,0.0,0.0,93,0.00,,BKN110,0.00,VWS V14.01,2013-07-03 07:40:00,
2013-07-03 03:45:00,68.8,66.7,30.01,SSW,196,0.0,0.0,93,0.00,,OVC018,0.00,VWS V14.01,2013-07-03 07:45:00,
2013-07-03 03:46:00,68.8,66.7,30.01,SSW,196,0.0,0.0,93,0.00,,BKN110,0.00,VWS V14.01,2013-07-03 07:46:00,
2013-07-03 03:50:00,68.8,66.7,30.01,SSW,196,0.0,0.0,93,0.00,,BKN110,0.00,VWS V14.01,2013-07-03 07:50:00,
2013-07-03 03:55:00,68.6,66.5,30.01,SSW,196,0.0,0.0,93,0.00,,BKN110,0.00,VWS V14.01,2013-07-03 07:55:00,
2013-07-03 04:00:00,68.6,66.5,30.01,SSW,196,0.0,0.0,93,0.00,,OVC018,0.00,VWS V14.01,2013-07-03 08:00:00,
2013-07-03 04:01:00,68.6,66.5,30.01,SSW,196,0.0,0.0,93,0.00,,BKN110,0.00,VWS V14.01,2013-07-03 08:01:00,
2013-07-03 04:06:00,68.6,66.5,30.01,SSW,196,0.0,0.0,93,0.00,,CLR,0.00,VWS V14.01,2013-07-03 08:06:00,
2013-07-03 04:10:00,68.6,66.5,30.01,SSW,196,0.0,0.0,93,0.00,,CLR,0.00,VWS V14.01,2013-07-03 08:10:00,
2013-07-03 04:15:00,68.4,66.3,30.02,SSW,196,0.0,0.0,93,0.00,,CLR,0.00,VWS V14.01,2013-07-03 08:15:00,
2013-07-03 04:18:00,68.4,66.3,30.02,SSW,196,0.0,0.0,93,0.00,,CLR,0.00,VWS V14.01,2013-07-03 08:18:00,
2013-07-03 04:24:00,68.3,66.2,30.02,SSW,196,0.0,0.0,93,0.00,,CLR,0.00,VWS V14.01,2013-07-03 08:24:00,
2013-07-03 04:29:00,68.3,66.2,30.03,SSW,196,0.0,0.0,93,0.00,,CLR,0.00,VWS V14.01,2013-07-03 08:29:00,
2013-07-03 04:30:00,68.3,66.2,30.03,SSW,196,0.0,0.0,93,0.00,,OVC018,0.00,VWS V14.01,2013-07-03 08:30:00,
2013-07-03 04:34:00,68.1,66.0,30.03,SSW,196,0.0,0.0,93,0.00,,CLR,0.00,VWS V14.01,2013-07-03 08:34:00,
2013-07-03 04:39:00,68.1,66.3,30.03,SSW,196,0.0,0.0,94,0.00,,CLR,0.00,VWS V14.01,2013-07-03 08:39:00,
2013-07-03 04:41:00,67.9,66.1,30.03,SSW,196,0.0,0.0,94,0.00,,CLR,0.00,VWS V14.01,2013-07-03 08:41:00,
2013-07-03 04:45:00,67.9,66.1,30.03,SSW,196,0.0,0.0,94,0.00,,CLR,0.00,VWS V14.01,2013-07-03 08:45:00,
2013-07-03 04:50:00,67.9,66.1,30.03,SSW,196,0.0,0.0,94,0.00,,CLR,0.00,VWS V14.01,2013-07-03 08:50:00,
2013-07-03 04:54:00,67.8,66.0,30.03,SSW,196,0.0,0.0,94,0.00,,CLR,0.00,VWS V14.01,2013-07-03 08:54:00,
2013-07-03 04:57:00,67.8,66.0,30.03,SSW,196,0.0,0.0,94,0.00,,CLR,0.00,VWS V14.01,2013-07-03 08:57:00,
2013-07-03 05:00:00,67.8,66.0,30.03,SSW,196,0.0,0.0,94,0.00,,OVC018,0.00,VWS V14.01,2013-07-03 09:00:00,
2013-07-03 05:02:00,67.6,65.8,30.03,SSW,196,0.0,0.0,94,0.00,,CLR,0.00,VWS V14.01,2013-07-03 09:02:00,
2013-07-03 05:07:00,67.6,65.8,30.03,SSW,196,0.0,0.0,94,0.00,,CLR,0.00,VWS V14.01,2013-07-03 09:07:00,
2013-07-03 05:13:00,67.6,65.8,30.03,SSW,196,0.0,0.0,94,0.00,,CLR,0.00,VWS V14.01,2013-07-03 09:13:00,
2013-07-03 05:15:00,67.6,65.8,30.04,SSW,196,0.0,0.0,94,0.00,,OVC018,0.00,VWS V14.01,2013-07-03 09:15:00,
2013-07-03 05:18:00,67.6,65.8,30.04,SSW,196,0.0,0.0,94,0.00,,CLR,0.00,VWS V14.01,2013-07-03 09:18:00,
2013-07-03 05:23:00,67.6,65.8,30.04,SSW,196,0.0,0.0,94,0.00,,CLR,0.00,VWS V14.01,2013-07-03 09:23:00,
2013-07-03 05:29:00,67.4,65.6,30.04,SSW,196,0.0,0.0,94,0.00,,CLR,0.00,VWS V14.01,2013-07-03 09:29:00,
2013-07-03 05:30:00,67.4,65.6,30.04,SSW,196,0.0,0.0,94,0.00,,OVC018,0.00,VWS V14.01,2013-07-03 09:30:00,
2013-07-03 05:34:00,67.4,65.6,30.04,SSW,199,0.0,0.0,94,0.00,,CLR,0.00,VWS V14.01,2013-07-03 09:34:00,
2013-07-03 05:39:00,67.4,65.6,30.04,SSW,199,0.0,0.0,94,0.00,,CLR,0.00,VWS V14.01,2013-07-03 09:39:00,
2013-07-03 05:41:00,67.4,65.6,30.04,SSW,199,0.0,0.0,94,0.00,,CLR,0.00,VWS V14.01,2013-07-03 09:41:00,
2013-07-03 05:45:00,67.4,65.6,30.05,SSW,199,0.0,0.0,94,0.00,,OVC018,0.00,VWS V14.01,2013-07-03 09:45:00,
2013-07-03 05:47:00,67.4,65.6,30.05,SSW,199,0.0,0.0,94,0.00,,CLR,0.00,VWS V14.01,2013-07-03 09:47:00,
2013-07-03 05:50:00,67.3,65.5,30.05,SSW,199,0.0,0.0,94,0.00,,CLR,0.00,VWS V14.01,2013-07-03 09:50:00,
2013-07-03 05:55:00,67.3,65.5,30.05,SSW,199,0.0,0.0,94,0.00,,CLR,0.00,VWS V14.01,2013-07-03 09:55:00,
2013-07-03 06:00:00,67.1,65.3,30.05,SSW,199,0.0,0.0,94,0.00,,OVC018,0.00,VWS V14.01,2013-07-03 10:00:00,
2013-07-03 06:01:00,67.1,65.3,30.05,SSW,199,0.0,0.0,94,0.00,,CLR,0.00,VWS V14.01,2013-07-03 10:01:00,
2013-07-03 06:04:00,67.1,65.6,30.05,SSW,199,0.0,0.0,95,0.00,,,0.00,VWS V14.01,2013-07-03 10:04:00,
2013-07-03 06:05:00,67.1,65.6,30.05,SSW,199,0.0,0.0,95,0.00,,,0.00,VWS V14.01,2013-07-03 10:05:00,
2013-07-03 06:10:00,67.1,65.6,30.05,SSW,199,0.0,0.0,95,0.00,,,0.00,VWS V14.01,2013-07-03 10:10:00,
2013-07-03 06:15:00,67.1,65.6,30.06,SSW,199,0.0,0.0,95,0.00,,,0.00,VWS V14.01,2013-07-03 10:15:00,
2013-07-03 06:21:00,66.9,65.4,30.06,SSW,199,0.0,0.0,95,0.00,,,0.00,VWS V14.01,2013-07-03 10:21:00,
2013-07-03 06:26:00,66.9,65.4,30.06,SSW,199,0.0,0.0,95,0.00,,,0.00,VWS V14.01,2013-07-03 10:26:00,
2013-07-03 06:30:00,66.9,65.4,30.06,SSW,199,0.0,0.0,95,0.00,,OVC018,0.00,VWS V14.01,2013-07-03 10:30:00,
2013-07-03 06:32:00,66.9,65.4,30.06,SSW,199,0.0,0.0,95,0.00,,,0.00,VWS V14.01,2013-07-03 10:32:00,
2013-07-03 06:37:00,66.9,65.4,30.06,SSW,199,0.0,0.0,95,0.00,,,0.00,VWS V14.01,2013-07-03 10:37:00,
2013-07-03 06:42:00,66.9,65.4,30.06,SSW,199,0.0,0.0,95,0.00,,,0.00,VWS V14.01,2013-07-03 10:42:00,
2013-07-03 06:45:00,66.9,65.4,30.06,SSW,199,0.0,0.0,95,0.00,,OVC018,0.00,VWS V14.01,2013-07-03 10:45:00,
2013-07-03 06:47:00,66.9,65.4,30.06,SSW,199,0.0,0.0,95,0.00,,,0.00,VWS V14.01,2013-07-03 10:47:00,
2013-07-03 06:49:00,66.9,65.4,30.06,SSW,199,0.0,0.0,95,0.00,,,0.00,VWS V14.01,2013-07-03 10:49:00,
2013-07-03 06:54:00,66.9,65.4,30.06,SSW,199,0.0,0.0,95,0.00,,,0.00,VWS V14.01,2013-07-03 10:54:00,
2013-07-03 06:55:00,67.1,65.6,30.06,SSW,199,0.0,0.0,95,0.00,,,0.00,VWS V14.01,2013-07-03 10:55:00,
2013-07-03 06:57:00,67.1,65.6,30.06,SSW,199,0.0,0.0,95,0.00,,,0.00,VWS V14.01,2013-07-03 10:57:00,
2013-07-03 07:00:00,67.1,65.6,30.07,SSW,199,0.0,0.0,95,0.00,,OVC018,0.00,VWS V14.01,2013-07-03 11:00:00,
2013-07-03 07:02:00,67.1,65.6,30.07,SSW,199,0.0,0.0,95,0.00,,,0.00,VWS V14.01,2013-07-03 11:02:00,
2013-07-03 07:08:00,67.3,65.8,30.07,SSW,199,0.0,0.0,95,0.00,,,0.00,VWS V14.01,2013-07-03 11:08:00,
2013-07-03 07:09:00,67.3,65.8,30.07,SSW,199,0.0,0.0,95,0.00,,,0.00,VWS V14.01,2013-07-03 11:09:00,
2013-07-03 07:14:00,67.4,65.9,30.07,SSW,199,0.0,0.0,95,0.00,,,0.00,VWS V14.01,2013-07-03 11:14:00,
2013-07-03 07:15:00,67.6,66.1,30.07,SSW,199,0.0,0.0,95,0.00,,OVC018,0.00,VWS V14.01,2013-07-03 11:15:00,
2013-07-03 07:19:00,67.8,66.3,30.07,SSW,199,0.0,0.0,95,0.00,,,0.00,VWS V14.01,2013-07-03 11:19:00,
2013-07-03 07:23:00,67.8,66.3,30.07,SSW,199,0.0,0.0,95,0.00,,,0.00,VWS V14.01,2013-07-03 11:23:00,
2013-07-03 07:25:00,67.9,66.4,30.07,SSW,199,0.0,0.0,95,0.00,,,0.00,VWS V14.01,2013-07-03 11:25:00,
2013-07-03 07:30:00,68.1,66.6,30.07,SSW,199,0.0,0.0,95,0.00,,,0.00,VWS V14.01,2013-07-03 11:30:00,
2013-07-03 07:35:00,68.3,66.8,30.07,SSW,199,0.0,0.0,95,0.00,,,0.00,VWS V14.01,2013-07-03 11:35:00,
2013-07-03 07:40:00,68.4,66.9,30.07,SSW,199,0.0,0.0,95,0.00,,,0.00,VWS V14.01,2013-07-03 11:40:00,
2013-07-03 07:45:00,68.8,67.3,30.08,SSW,199,0.0,1.0,95,0.00,,,0.00,VWS V14.01,2013-07-03 11:45:00,
2013-07-03 07:51:00,69.4,68.2,30.08,SSW,199,0.0,2.0,96,0.00,,,0.00,VWS V14.01,2013-07-03 11:51:00,
2013-07-03 07:57:00,69.6,68.1,30.08,SSW,199,0.0,0.0,95,0.00,,,0.00,VWS V14.01,2013-07-03 11:57:00,
2013-07-03 08:00:00,69.8,68.3,30.08,SSW,198,0.0,0.0,95,0.00,,,0.00,VWS V14.01,2013-07-03 12:00:00,
2013-07-03 08:02:00,69.9,68.4,30.08,SSW,199,0.0,1.0,95,0.00,,,0.00,VWS V14.01,2013-07-03 12:02:00,
2013-07-03 08:07:00,70.3,68.8,30.08,SSW,199,0.0,1.0,95,0.00,,CLR,0.00,VWS V14.01,2013-07-03 12:07:00,
2013-07-03 08:12:00,70.6,68.8,30.08,SSW,199,0.0,0.0,94,0.00,,CLR,0.00,VWS V14.01,2013-07-03 12:12:00,
2013-07-03 08:15:00,70.8,69.0,30.08,SSW,199,0.0,0.0,94,0.00,,OVC018,0.00,VWS V14.01,2013-07-03 12:15:00,
2013-07-03 08:16:00,70.8,69.0,30.08,SSW,199,0.0,0.0,94,0.00,,CLR,0.00,VWS V14.01,2013-07-03 12:16:00,
2013-07-03 08:20:00,70.9,68.8,30.08,SSW,199,0.0,0.0,93,0.00,,CLR,0.00,VWS V14.01,2013-07-03 12:20:00,
2013-07-03 08:25:00,71.3,68.9,30.08,SSW,199,0.0,0.0,92,0.00,,CLR,0.00,VWS V14.01,2013-07-03 12:25:00,
2013-07-03 08:30:00,71.6,68.8,30.08,SSW,199,0.0,2.0,91,0.00,,OVC018,0.00,VWS V14.01,2013-07-03 12:30:00,
2013-07-03 08:31:00,71.6,68.8,30.08,SSW,199,0.0,2.0,91,0.00,,CLR,0.00,VWS V14.01,2013-07-03 12:31:00,
2013-07-03 08:36:00,72.3,69.5,30.08,SSW,198,0.0,2.0,91,0.00,,CLR,0.00,VWS V14.01,2013-07-03 12:36:00,
2013-07-03 08:41:00,72.8,69.4,30.08,SSE,154,0.0,2.0,89,0.00,,CLR,0.00,VWS V14.01,2013-07-03 12:41:00,
2013-07-03 08:45:00,73.3,69.5,30.09,South,186,0.0,5.0,88,0.00,,OVC018,0.00,VWS V14.01,2013-07-03 12:45:00,
2013-07-03 08:46:00,73.3,69.2,30.09,South,189,4.0,5.0,87,0.00,,CLR,0.00,VWS V14.01,2013-07-03 12:46:00,
2013-07-03 08:47:00,73.5,69.1,30.09,South,189,0.0,5.0,86,0.00,,CLR,0.00,VWS V14.01,2013-07-03 12:47:00,
2013-07-03 08:52:00,73.9,69.4,30.09,South,189,0.0,5.0,86,0.00,,CLR,0.00,VWS V14.01,2013-07-03 12:52:00,
2013-07-03 08:58:00,74.0,69.2,30.09,South,188,0.0,0.0,85,0.00,,CLR,0.00,VWS V14.01,2013-07-03 12:58:00,
2013-07-03 09:00:00,74.0,69.2,30.10,South,188,0.0,1.0,85,0.00,,OVC018,0.00,VWS V14.01,2013-07-03 13:00:00,
2013-07-03 09:03:00,74.0,69.2,30.10,South,188,0.0,1.0,85,0.00,,CLR,0.00,VWS V14.01,2013-07-03 13:03:00,
2013-07-03 09:08:00,73.9,69.1,30.10,South,188,0.0,1.0,85,0.00,,CLR,0.00,VWS V14.01,2013-07-03 13:08:00,
2013-07-03 09:14:00,73.7,68.9,30.10,South,188,0.0,1.0,85,0.00,,CLR,0.00,VWS V14.01,2013-07-03 13:14:00,
2013-07-03 09:15:00,73.7,68.9,30.11,South,188,0.0,0.0,85,0.00,,OVC018,0.00,VWS V14.01,2013-07-03 13:15:00,
2013-07-03 09:19:00,73.9,69.1,30.11,South,188,0.0,0.0,85,0.00,,CLR,0.00,VWS V14.01,2013-07-03 13:19:00,
2013-07-03 09:24:00,73.9,69.1,30.11,South,188,0.0,0.0,85,0.00,,CLR,0.00,VWS V14.01,2013-07-03 13:24:00,
2013-07-03 09:25:00,74.0,69.2,30.11,South,188,0.0,0.0,85,0.00,,CLR,0.00,VWS V14.01,2013-07-03 13:25:00,
2013-07-03 09:26:00,74.0,69.2,30.11,South,188,0.0,0.0,85,0.00,,CLR,0.00,VWS V14.01,2013-07-03 13:26:00,
2013-07-03 09:30:00,74.0,68.9,30.11,South,188,0.0,0.0,84,0.00,,OVC018,0.00,VWS V14.01,2013-07-03 13:30:00,
2013-07-03 09:31:00,74.2,69.1,30.11,South,188,0.0,0.0,84,0.00,,CLR,0.00,VWS V14.01,2013-07-03 13:31:00,
2013-07-03 09:36:00,74.6,69.4,30.11,South,188,0.0,0.0,84,0.00,,SCT110,0.00,VWS V14.01,2013-07-03 13:36:00,
2013-07-03 09:38:00,74.7,69.9,30.11,South,188,0.0,1.0,85,0.00,,SCT110,0.00,VWS V14.01,2013-07-03 13:38:00,
2013-07-03 09:44:00,74.9,69.4,30.11,South,188,0.0,1.0,83,0.00,,SCT110,0.00,VWS V14.01,2013-07-03 13:44:00,
2013-07-03 09:45:00,74.9,69.7,30.11,South,188,0.0,1.0,84,0.00,,OVC018,0.00,VWS V14.01,2013-07-03 13:45:00,
2013-07-03 09:49:00,75.1,69.6,30.11,South,188,0.0,1.0,83,0.00,,SCT110,0.00,VWS V14.01,2013-07-03 13:49:00,
2013-07-03 09:54:00,75.3,69.8,30.11,West,274,0.0,1.0,83,0.00,,SCT110,0.00,VWS V14.01,2013-07-03 13:54:00,
2013-07-03 09:59:00,75.3,69.8,30.12,SSE,154,0.0,1.0,83,0.00,,SCT110,0.00,VWS V14.01,2013-07-03 13:59:00,
2013-07-03 10:00:00,75.3,69.8,30.12,SSE,154,0.0,1.0,83,0.00,,OVC018,0.00,VWS V14.01,2013-07-03 14:00:00,
2013-07-03 10:04:00,75.4,69.2,30.12,SSE,158,0.0,1.0,81,0.00,,SCT110,0.00,VWS V14.01,2013-07-03 14:04:00,
2013-07-03 10:06:00,75.4,69.5,30.12,SSE,168,1.0,1.0,82,0.00,,SCT110,0.00,VWS V14.01,2013-07-03 14:06:00,
2013-07-03 10:09:00,75.6,69.4,30.12,SSW,209,0.0,7.0,81,0.00,,SCT110,0.00,VWS V14.01,2013-07-03 14:09:00,
2013-07-03 10:14:00,76.0,69.4,30.12,SSE,151,0.0,7.0,80,0.00,,SCT110,0.00,VWS V14.01,2013-07-03 14:14:00,
2013-07-03 10:15:00,76.0,69.4,30.12,SSE,151,0.0,7.0,80,0.00,,OVC018,0.00,VWS V14.01,2013-07-03 14:15:00,
2013-07-03 10:18:00,76.5,69.9,30.12,SSE,161,0.0,2.0,80,0.00,,OVC095,0.00,VWS V14.01,2013-07-03 14:18:00,
2013-07-03 10:23:00,76.8,69.4,30.12,SW,223,0.0,6.0,78,0.00,,OVC095,0.00,VWS V14.01,2013-07-03 14:23:00,
2013-07-03 10:28:00,77.0,69.2,30.12,SSW,210,0.0,6.0,77,0.00,,OVC095,0.00,VWS V14.01,2013-07-03 14:28:00,
2013-07-03 10:30:00,77.0,69.2,30.12,SSE,168,0.0,6.0,77,0.00,,OVC095,0.00,VWS V14.01,2013-07-03 14:30:00,
2013-07-03 10:35:00,77.0,69.2,30.12,SSE,168,0.0,1.0,77,0.00,,OVC095,0.00,VWS V14.01,2013-07-03 14:35:00,
2013-07-03 10:38:00,77.0,68.9,30.12,South,178,0.0,1.0,76,0.00,,OVC095,0.00,VWS V14.01,2013-07-03 14:38:00,
2013-07-03 10:41:00,77.4,69.6,30.12,South,178,0.0,1.0,77,0.00,,OVC095,0.00,VWS V14.01,2013-07-03 14:41:00,
2013-07-03 10:45:00,77.7,69.9,30.11,South,178,0.0,0.0,77,0.00,,OVC018,0.00,VWS V14.01,2013-07-03 14:45:00,
2013-07-03 10:46:00,77.7,70.3,30.11,South,179,0.0,0.0,78,0.00,,OVC095,0.00,VWS V14.01,2013-07-03 14:46:00,
2013-07-03 10:51:00,77.9,69.7,30.11,South,179,0.0,0.0,76,0.00,,OVC095,0.00,VWS V14.01,2013-07-03 14:51:00,
2013-07-03 10:56:00,77.9,69.7,30.11,South,178,0.0,1.0,76,0.00,,OVC095,0.00,VWS V14.01,2013-07-03 14:56:00,
2013-07-03 10:58:00,78.1,70.7,30.11,SSW,203,4.0,6.0,78,0.00,,OVC095,0.00,VWS V14.01,2013-07-03 14:58:00,
2013-07-03 11:00:00,78.1,69.5,30.11,SSW,205,0.0,6.0,75,0.00,,OVC018,0.00,VWS V14.01,2013-07-03 15:00:00,
2013-07-03 11:03:00,78.1,69.9,30.11,SSW,205,0.0,6.0,76,0.00,,OVC095,0.00,VWS V14.01,2013-07-03 15:03:00,
2013-07-03 11:04:00,78.3,70.1,30.11,SSW,205,0.0,6.0,76,0.00,,OVC095,0.00,VWS V14.01,2013-07-03 15:04:00,
2013-07-03 11:10:00,78.5,70.7,30.11,SSW,205,0.0,1.0,77,0.00,,OVC095,0.00,VWS V14.01,2013-07-03 15:10:00,
2013-07-03 11:15:00,78.6,70.0,30.11,South,188,0.0,1.0,75,0.00,,OVC095,0.00,VWS V14.01,2013-07-03 15:15:00,
2013-07-03 11:20:00,79.0,70.4,30.11,South,188,0.0,0.0,75,0.00,,OVC095,0.00,VWS V14.01,2013-07-03 15:20:00,
2013-07-03 11:25:00,79.0,70.4,30.11,South,188,0.0,0.0,75,0.00,,OVC095,0.00,VWS V14.01,2013-07-03 15:25:00,
2013-07-03 11:28:00,79.2,70.6,30.11,South,188,0.0,0.0,75,0.00,,OVC095,0.00,VWS V14.01,2013-07-03 15:28:00,
2013-07-03 11:30:00,79.2,70.2,30.11,South,188,0.0,0.0,74,0.00,,OVC018,0.00,VWS V14.01,2013-07-03 15:30:00,
2013-07-03 11:34:00,79.4,69.6,30.11,South,184,0.0,0.0,72,0.00,,BKN110,0.00,VWS V14.01,2013-07-03 15:34:00,
2013-07-03 11:39:00,79.8,70.8,30.11,South,184,0.0,1.0,74,0.00,,BKN110,0.00,VWS V14.01,2013-07-03 15:39:00,
2013-07-03 11:40:00,79.8,70.4,30.11,South,184,3.0,3.0,73,0.00,,BKN110,0.00,VWS V14.01,2013-07-03 15:40:00,
2013-07-03 11:45:00,79.8,70.8,30.11,South,186,0.0,5.0,74,0.00,,BKN110,0.00,VWS V14.01,2013-07-03 15:45:00,
2013-07-03 11:50:00,79.9,70.9,30.11,South,191,3.0,5.0,74,0.00,,BKN110,0.00,VWS V14.01,2013-07-03 15:50:00,
2013-07-03 11:52:00,79.9,70.9,30.11,South,188,0.0,5.0,74,0.00,,BKN110,0.00,VWS V14.01,2013-07-03 15:52:00,
2013-07-03 11:58:00,80.1,70.7,30.11,South,188,0.0,3.0,73,0.00,,BKN110,0.00,VWS V14.01,2013-07-03 15:58:00,
2013-07-03 12:00:00,80.1,70.7,30.11,South,188,0.0,0.0,73,0.00,,OVC018,0.00,VWS V14.01,2013-07-03 16:00:00,
2013-07-03 12:03:00,80.1,71.1,30.11,SSW,196,0.0,0.0,74,0.00,,BKN110,0.00,VWS V14.01,2013-07-03 16:03:00,
2013-07-03 12:08:00,80.3,71.7,30.11,South,174,0.0,1.0,75,0.00,,BKN110,0.00,VWS V14.01,2013-07-03 16:08:00,
2013-07-03 12:13:00,80.3,70.9,30.11,SSW,199,0.0,6.0,73,0.00,,BKN110,0.00,VWS V14.01,2013-07-03 16:13:00,
2013-07-03 12:15:00,80.5,71.1,30.11,SSW,196,0.0,6.0,73,0.00,,OVC018,0.00,VWS V14.01,2013-07-03 16:15:00,
2013-07-03 12:18:00,80.5,70.7,30.11,SSW,195,0.0,3.0,72,0.00,,BKN110,0.00,VWS V14.01,2013-07-03 16:18:00,
2013-07-03 12:23:00,79.9,70.5,30.11,SSW,195,0.0,1.0,73,0.00,,BKN110,0.00,VWS V14.01,2013-07-03 16:23:00,
2013-07-03 12:28:00,79.8,70.0,30.11,SSW,195,0.0,1.0,72,0.00,,BKN110,0.00,VWS V14.01,2013-07-03 16:28:00,
2013-07-03 12:30:00,79.8,70.0,30.11,SSW,195,0.0,1.0,72,0.00,,OVC018,0.00,VWS V14.01,2013-07-03 16:30:00,
2013-07-03 12:33:00,79.9,70.1,30.11,SSW,195,0.0,1.0,72,0.00,,BKN110,0.00,VWS V14.01,2013-07-03 16:33:00,
2013-07-03 12:38:00,80.1,69.9,30.11,SSW,195,0.0,1.0,71,0.00,,BKN110,0.00,VWS V14.01,2013-07-03 16:38:00,
2013-07-03 12:44:00,80.5,71.5,30.11,WSW,237,0.0,6.0,74,0.00,,BKN110,0.00,VWS V14.01,2013-07-03 16:44:00,
2013-07-03 12:45:00,80.7,71.7,30.10,WSW,237,0.0,6.0,74,0.00,,OVC018,0.00,VWS V14.01,2013-07-03 16:45:00,
2013-07-03 12:49:00,81.1,71.2,30.10,SW,236,0.0,6.0,72,0.00,,BKN110,0.00,VWS V14.01,2013-07-03 16:49:00,
2013-07-03 12:54:00,81.1,70.8,30.10,South,186,0.0,3.0,71,0.00,,BKN110,0.00,VWS V14.01,2013-07-03 16:54:00,
2013-07-03 12:59:00,81.2,71.3,30.10,South,186,0.0,3.0,72,0.00,,BKN110,0.00,VWS V14.01,2013-07-03 16:59:00,
2013-07-03 13:00:00,81.2,71.3,30.10,South,186,0.0,3.0,72,0.00,,OVC018,0.00,VWS V14.01,2013-07-03 17:00:00,
2013-07-03 13:04:00,81.4,71.1,30.10,South,171,0.0,0.0,71,0.00,,CLR,0.00,VWS V14.01,2013-07-03 17:04:00,
2013-07-03 13:09:00,81.4,71.1,30.10,South,171,0.0,0.0,71,0.00,,CLR,0.00,VWS V14.01,2013-07-03 17:09:00,
2013-07-03 13:14:00,81.6,69.6,30.10,SSW,213,0.0,7.0,67,0.00,,CLR,0.00,VWS V14.01,2013-07-03 17:14:00,
2013-07-03 13:15:00,81.6,69.6,30.10,SW,220,5.0,7.0,67,0.00,,OVC018,0.00,VWS V14.01,2013-07-03 17:15:00,
2013-07-03 13:20:00,82.0,70.0,30.10,South,191,0.0,7.0,67,0.00,,CLR,0.00,VWS V14.01,2013-07-03 17:20:00,
2013-07-03 13:25:00,82.2,70.6,30.10,South,189,0.0,4.0,68,0.00,,CLR,0.00,VWS V14.01,2013-07-03 17:25:00,
2013-07-03 13:30:00,82.4,69.9,30.10,South,185,0.0,7.0,66,0.00,,CLR,0.00,VWS V14.01,2013-07-03 17:30:00,
2013-07-03 13:35:00,82.0,69.5,30.10,South,191,0.0,7.0,66,0.00,,CLR,0.00,VWS V14.01,2013-07-03 17:35:00,
2013-07-03 13:40:00,81.6,68.7,30.10,South,186,0.0,6.0,65,0.00,,CLR,0.00,VWS V14.01,2013-07-03 17:40:00,
2013-07-03 13:45:00,82.4,69.0,30.09,SSE,167,0.0,10.0,64,0.00,,CLR,0.00,VWS V14.01,2013-07-03 17:45:00,
2013-07-03 13:50:00,83.2,68.4,30.09,SSW,199,2.0,13.0,61,0.00,,CLR,0.00,VWS V14.01,2013-07-03 17:50:00,
2013-07-03 13:56:00,83.4,68.6,30.09,SSW,209,4.0,14.0,61,0.00,,CLR,0.00,VWS V14.01,2013-07-03 17:56:00,
2013-07-03 14:00:00,83.2,68.4,30.09,SSW,208,0.0,14.0,61,0.00,,OVC018,0.00,VWS V14.01,2013-07-03 18:00:00,
2013-07-03 14:01:00,83.2,68.4,30.09,South,182,7.0,14.0,61,0.00,,CLR,0.00,VWS V14.01,2013-07-03 18:01:00,
2013-07-03 14:06:00,83.0,68.2,30.09,South,176,5.0,12.0,61,0.00,,CLR,0.00,VWS V14.01,2013-07-03 18:06:00,
2013-07-03 14:11:00,83.0,68.7,30.09,SSE,164,0.0,12.0,62,0.00,,CLR,0.00,VWS V14.01,2013-07-03 18:11:00,
2013-07-03 14:15:00,83.2,69.8,30.09,South,181,0.0,12.0,64,0.00,,OVC018,0.00,VWS V14.01,2013-07-03 18:15:00,
2013-07-03 14:16:00,83.4,70.4,30.09,South,188,0.0,12.0,65,0.00,,CLR,0.00,VWS V14.01,2013-07-03 18:16:00,
2013-07-03 14:21:00,83.8,70.8,30.09,SSW,202,0.0,11.0,65,0.00,,CLR,0.00,VWS V14.01,2013-07-03 18:21:00,
2013-07-03 14:26:00,84.1,69.2,30.09,SSW,205,0.0,13.0,61,0.00,,CLR,0.00,VWS V14.01,2013-07-03 18:26:00,
2013-07-03 14:30:00,84.1,69.7,30.09,SSW,213,0.0,13.0,62,0.00,,OVC018,0.00,VWS V14.01,2013-07-03 18:30:00,
2013-07-03 14:31:00,84.3,69.4,30.09,SSW,213,0.0,13.0,61,0.00,,CLR,0.00,VWS V14.01,2013-07-03 18:31:00,
2013-07-03 14:36:00,84.5,69.6,30.09,SSE,158,0.0,10.0,61,0.00,,CLR,0.00,VWS V14.01,2013-07-03 18:36:00,
2013-07-03 14:41:00,84.3,70.8,30.09,SW,230,3.0,7.0,64,0.00,,CLR,0.00,VWS V14.01,2013-07-03 18:41:00,
2013-07-03 14:45:00,84.3,70.3,30.09,SSW,202,0.0,3.0,63,0.00,,OVC018,0.00,VWS V14.01,2013-07-03 18:45:00,
2013-07-03 14:46:00,84.5,70.5,30.09,SW,216,0.0,5.0,63,0.00,,CLR,0.00,VWS V14.01,2013-07-03 18:46:00,
2013-07-03 14:51:00,84.5,69.1,30.09,SSW,198,2.0,8.0,60,0.00,,CLR,0.00,VWS V14.01,2013-07-03 18:51:00,
2013-07-03 14:57:00,84.3,70.3,30.09,SSW,203,0.0,8.0,63,0.00,,CLR,0.00,VWS V14.01,2013-07-03 18:57:00,
2013-07-03 15:00:00,84.0,69.6,30.09,South,182,0.0,7.0,62,0.00,,OVC018,0.00,VWS V14.01,2013-07-03 19:00:00,
2013-07-03 15:02:00,83.8,69.4,30.09,WSW,240,0.0,7.0,62,0.00,,CLR,0.00,VWS V14.01,2013-07-03 19:02:00,
2013-07-03 15:07:00,83.4,70.9,30.09,SSW,209,0.0,6.0,66,0.00,,FEW040,0.00,VWS V14.01,2013-07-03 19:07:00,
2013-07-03 15:13:00,83.6,71.1,30.09,SSW,203,0.0,6.0,66,0.00,,FEW040,0.00,VWS V14.01,2013-07-03 19:13:00,
2013-07-03 15:15:00,83.8,71.2,30.09,SE,143,0.0,6.0,66,0.00,,OVC018,0.00,VWS V14.01,2013-07-03 19:15:00,
2013-07-03 15:18:00,83.8,71.2,30.09,South,176,0.0,5.0,66,0.00,,FEW040,0.00,VWS V14.01,2013-07-03 19:18:00,
2013-07-03 15:23:00,83.8,72.1,30.09,South,178,0.0,5.0,68,0.00,,FEW040,0.00,VWS V14.01,2013-07-03 19:23:00,
2013-07-03 15:28:00,84.1,71.1,30.09,South,178,0.0,0.0,65,0.00,,FEW040,0.00,VWS V14.01,2013-07-03 19:28:00,
2013-07-03 15:30:00,84.0,70.5,30.08,South,178,0.0,0.0,64,0.00,,OVC018,0.00,VWS V14.01,2013-07-03 19:30:00,
2013-07-03 15:33:00,83.6,71.1,30.08,South,178,0.0,0.0,66,0.00,,FEW040,0.00,VWS V14.01,2013-07-03 19:33:00,
2013-07-03 15:38:00,82.8,70.7,30.08,SSW,193,0.0,1.0,67,0.00,,FEW040,0.00,VWS V14.01,2013-07-03 19:38:00,
2013-07-03 15:43:00,82.4,70.8,30.08,South,191,0.0,2.0,68,0.00,,FEW040,0.00,VWS V14.01,2013-07-03 19:43:00,
2013-07-03 15:45:00,82.4,70.3,30.08,South,191,0.0,2.0,67,0.00,,OVC018,0.00,VWS V14.01,2013-07-03 19:45:00,
2013-07-03 15:48:00,82.4,71.2,30.08,South,191,0.0,2.0,69,0.00,,FEW040,0.00,VWS V14.01,2013-07-03 19:48:00,
2013-07-03 15:54:00,83.0,70.5,30.08,South,191,0.0,0.0,66,0.00,,FEW040,0.00,VWS V14.01,2013-07-03 19:54:00,
2013-07-03 15:59:00,83.6,70.6,30.08,SW,216,0.0,4.0,65,0.00,,FEW040,0.00,VWS V14.01,2013-07-03 19:59:00,
2013-07-03 16:00:00,83.6,70.6,30.07,SW,216,0.0,4.0,65,0.00,,OVC018,0.00,VWS V14.01,2013-07-03 20:00:00,
2013-07-03 16:04:00,83.8,69.4,30.07,West,268,0.0,4.0,62,0.00,,FEW035,0.00,VWS V14.01,2013-07-03 20:04:00,
2013-07-03 16:09:00,84.0,69.6,30.07,SSW,202,5.0,6.0,62,0.00,,FEW035,0.00,VWS V14.01,2013-07-03 20:09:00,
2013-07-03 16:15:00,84.0,70.5,30.07,SW,215,3.0,7.0,64,0.00,,FEW035,0.00,VWS V14.01,2013-07-03 20:15:00,
2013-07-03 16:20:00,83.8,68.4,30.07,SSW,208,4.0,7.0,60,0.00,,FEW035,0.00,VWS V14.01,2013-07-03 20:20:00,
2013-07-03 16:25:00,84.0,69.1,30.07,SW,227,0.0,7.0,61,0.00,,FEW035,0.00,VWS V14.01,2013-07-03 20:25:00,
2013-07-03 16:30:00,83.8,68.4,30.07,South,178,3.0,9.0,60,0.00,,FEW035,0.00,VWS V14.01,2013-07-03 20:30:00,
2013-07-03 16:35:00,83.6,69.7,30.07,SSE,152,0.0,9.0,63,0.00,,FEW035,0.00,VWS V14.01,2013-07-03 20:35:00,
2013-07-03 16:40:00,83.4,69.0,30.07,SW,216,0.0,7.0,62,0.00,,FEW035,0.00,VWS V14.01,2013-07-03 20:40:00,
2013-07-03 16:45:00,83.2,69.3,30.07,SW,220,0.0,7.0,63,0.00,,OVC018,0.00,VWS V14.01,2013-07-03 20:45:00,
2013-07-03 16:46:00,83.2,69.3,30.07,SW,220,0.0,7.0,63,0.00,,FEW035,0.00,VWS V14.01,2013-07-03 20:46:00,
2013-07-03 16:52:00,83.0,69.1,30.07,SW,215,0.0,10.0,63,0.00,,FEW035,0.00,VWS V14.01,2013-07-03 20:52:00,
2013-07-03 16:57:00,82.8,68.9,30.07,SW,217,0.0,10.0,63,0.00,,FEW035,0.00,VWS V14.01,2013-07-03 20:57:00,
2013-07-03 17:00:00,82.8,69.4,30.07,SSE,147,0.0,6.0,64,0.00,,OVC018,0.00,VWS V14.01,2013-07-03 21:00:00,
2013-07-03 17:03:00,82.8,69.4,30.07,SW,224,0.0,6.0,64,0.00,,FEW035,0.00,VWS V14.01,2013-07-03 21:03:00,
2013-07-03 17:08:00,82.4,69.5,30.07,SW,219,0.0,6.0,65,0.00,,FEW035,0.00,VWS V14.01,2013-07-03 21:08:00,
2013-07-03 17:13:00,82.2,69.3,30.07,WSW,248,0.0,5.0,65,0.00,,FEW035,0.00,VWS V14.01,2013-07-03 21:13:00,
2013-07-03 17:15:00,82.2,69.3,30.07,SSW,212,6.0,6.0,65,0.00,,OVC018,0.00,VWS V14.01,2013-07-03 21:15:00,
2013-07-03 17:18:00,81.8,68.9,30.07,SW,227,0.0,9.0,65,0.00,,FEW035,0.00,VWS V14.01,2013-07-03 21:18:00,
2013-07-03 17:24:00,81.6,69.2,30.07,SW,217,0.0,9.0,66,0.00,,FEW035,0.00,VWS V14.01,2013-07-03 21:24:00,
2013-07-03 17:29:00,81.6,69.6,30.07,SW,220,0.0,5.0,67,0.00,,FEW035,0.00,VWS V14.01,2013-07-03 21:29:00,
2013-07-03 17:30:00,81.6,69.2,30.07,SW,220,0.0,5.0,66,0.00,,OVC018,0.00,VWS V14.01,2013-07-03 21:30:00,
2013-07-03 17:34:00,81.4,69.4,30.07,SW,222,0.0,3.0,67,0.00,,FEW035,0.00,VWS V14.01,2013-07-03 21:34:00,
2013-07-03 17:39:00,81.4,69.0,30.07,SW,229,0.0,3.0,66,0.00,,FEW035,0.00,VWS V14.01,2013-07-03 21:39:00,
2013-07-03 17:44:00,81.2,69.6,30.08,SW,215,0.0,3.0,68,0.00,,FEW035,0.00,VWS V14.01,2013-07-03 21:44:00,
2013-07-03 17:45:00,81.2,69.6,30.08,SW,215,7.0,7.0,68,0.00,,OVC018,0.00,VWS V14.01,2013-07-03 21:45:00,
2013-07-03 17:50:00,80.9,69.4,30.08,South,191,0.0,11.0,68,0.00,,FEW035,0.00,VWS V14.01,2013-07-03 21:50:00,
2013-07-03 17:55:00,80.7,69.2,30.08,South,185,2.0,11.0,68,0.00,,FEW035,0.00,VWS V14.01,2013-07-03 21:55:00,
2013-07-03 18:00:00,80.7,69.2,30.07,SW,216,0.0,6.0,68,0.00,,FEW035,0.00,VWS V14.01,2013-07-03 22:00:00,
2013-07-03 18:06:00,80.5,69.0,30.07,SSW,213,4.0,6.0,68,0.00,,FEW035,0.00,VWS V14.01,2013-07-03 22:06:00,
2013-07-03 18:11:00,80.5,69.4,30.07,SSW,199,0.0,6.0,69,0.00,,FEW035,0.00,VWS V14.01,2013-07-03 22:11:00,
2013-07-03 18:15:00,80.3,69.2,30.08,SSW,195,0.0,6.0,69,0.00,,OVC018,0.00,VWS V14.01,2013-07-03 22:15:00,
2013-07-03 18:16:00,80.5,69.4,30.08,SSW,195,0.0,3.0,69,0.00,,FEW035,0.00,VWS V14.01,2013-07-03 22:16:00,
2013-07-03 18:21:00,80.5,69.8,30.08,SSW,195,0.0,3.0,70,0.00,,FEW035,0.00,VWS V14.01,2013-07-03 22:21:00,
2013-07-03 18:26:00,80.3,69.6,30.08,SSW,195,0.0,0.0,70,0.00,,FEW035,0.00,VWS V14.01,2013-07-03 22:26:00,
2013-07-03 18:30:00,80.1,69.9,30.08,SSW,195,0.0,1.0,71,0.00,,OVC018,0.00,VWS V14.01,2013-07-03 22:30:00,
2013-07-03 18:32:00,80.1,69.9,30.08,SSW,195,0.0,1.0,71,0.00,,FEW035,0.00,VWS V14.01,2013-07-03 22:32:00,
2013-07-03 18:37:00,79.9,69.7,30.08,SSW,195,0.0,0.0,71,0.00,,FEW035,0.00,VWS V14.01,2013-07-03 22:37:00,
2013-07-03 18:43:00,79.8,70.0,30.08,SSW,195,0.0,0.0,72,0.00,,FEW035,0.00,VWS V14.01,2013-07-03 22:43:00,
2013-07-03 18:45:00,79.6,69.4,30.08,South,189,0.0,0.0,71,0.00,,OVC018,0.00,VWS V14.01,2013-07-03 22:45:00,
2013-07-03 18:48:00,79.6,69.8,30.08,South,189,0.0,0.0,72,0.00,,FEW035,0.00,VWS V14.01,2013-07-03 22:48:00,
2013-07-03 18:53:00,79.6,70.2,30.08,South,189,0.0,0.0,73,0.00,,FEW035,0.00,VWS V14.01,2013-07-03 22:53:00,
2013-07-03 18:59:00,79.4,70.0,30.08,South,189,0.0,0.0,73,0.00,,FEW035,0.00,VWS V14.01,2013-07-03 22:59:00,
2013-07-03 19:00:00,79.4,70.4,30.07,South,189,0.0,0.0,74,0.00,,OVC018,0.00,VWS V14.01,2013-07-03 23:00:00,
2013-07-03 19:04:00,79.4,70.4,30.07,South,189,0.0,0.0,74,0.00,,CLR,0.00,VWS V14.01,2013-07-03 23:04:00,
2013-07-03 19:09:00,79.2,70.6,30.07,South,189,0.0,0.0,75,0.00,,CLR,0.00,VWS V14.01,2013-07-03 23:09:00,
2013-07-03 19:14:00,79.0,70.8,30.07,South,189,0.0,0.0,76,0.00,,CLR,0.00,VWS V14.01,2013-07-03 23:14:00,
2013-07-03 19:15:00,79.0,70.8,30.07,South,189,0.0,0.0,76,0.00,,OVC018,0.00,VWS V14.01,2013-07-03 23:15:00,
2013-07-03 19:20:00,78.6,71.2,30.07,South,189,0.0,0.0,78,0.00,,CLR,0.00,VWS V14.01,2013-07-03 23:20:00,
2013-07-03 19:26:00,78.1,70.7,30.07,ESE,109,0.0,0.0,78,0.00,,CLR,0.00,VWS V14.01,2013-07-03 23:26:00,
2013-07-03 19:30:00,77.6,70.2,30.08,ENE,71,0.0,0.0,78,0.00,,OVC018,0.00,VWS V14.01,2013-07-03 23:30:00,
2013-07-03 19:31:00,77.4,70.0,30.08,ENE,71,0.0,0.0,78,0.00,,CLR,0.00,VWS V14.01,2013-07-03 23:31:00,
2013-07-03 19:37:00,76.8,69.8,30.08,ENE,72,0.0,0.0,79,0.00,,CLR,0.00,VWS V14.01,2013-07-03 23:37:00,
2013-07-03 19:42:00,76.5,69.9,30.08,ENE,72,0.0,0.0,80,0.00,,CLR,0.00,VWS V14.01,2013-07-03 23:42:00,
2013-07-03 19:45:00,76.5,69.5,30.08,ENE,72,0.0,0.0,79,0.00,,OVC018,0.00,VWS V14.01,2013-07-03 23:45:00,
2013-07-03 19:48:00,76.3,69.7,30.08,ENE,72,0.0,0.0,80,0.00,,CLR,0.00,VWS V14.01,2013-07-03 23:48:00,
2013-07-03 19:53:00,76.1,69.8,30.08,ENE,72,0.0,0.0,81,0.00,,CLR,0.00,VWS V14.01,2013-07-03 23:53:00,
2013-07-03 19:58:00,76.0,69.8,30.08,ENE,72,0.0,0.0,81,0.00,,CLR,0.00,VWS V14.01,2013-07-03 23:58:00,
2013-07-03 20:00:00,76.0,69.8,30.08,ENE,73,0.0,0.0,81,0.00,,OVC018,0.00,VWS V14.01,2013-07-04 00:00:00,
2013-07-03 20:03:00,76.0,70.1,30.08,ENE,72,0.0,0.0,82,0.00,,CLR,0.00,VWS V14.01,2013-07-04 00:03:00,
2013-07-03 20:08:00,76.0,70.1,30.08,ENE,72,0.0,0.0,82,0.00,,SCT070,0.00,VWS V14.01,2013-07-04 00:08:00,
2013-07-03 20:13:00,75.8,69.9,30.08,ENE,72,0.0,0.0,82,0.00,,SCT070,0.00,VWS V14.01,2013-07-04 00:13:00,
2013-07-03 20:15:00,75.8,69.9,30.08,ENE,72,0.0,0.0,82,0.00,,OVC018,0.00,VWS V14.01,2013-07-04 00:15:00,
2013-07-03 20:18:00,75.8,69.9,30.08,ENE,72,0.0,0.0,82,0.00,,SCT070,0.00,VWS V14.01,2013-07-04 00:18:00,
2013-07-03 20:23:00,75.8,69.9,30.08,ENE,72,0.0,0.0,82,0.00,,SCT070,0.00,VWS V14.01,2013-07-04 00:23:00,
2013-07-03 20:29:00,75.6,69.7,30.08,ENE,72,0.0,0.0,82,0.00,,SCT070,0.00,VWS V14.01,2013-07-04 00:29:00,
2013-07-03 20:30:00,75.6,69.7,30.08,ENE,72,0.0,0.0,82,0.00,,OVC018,0.00,VWS V14.01,2013-07-04 00:30:00,
2013-07-03 20:34:00,75.6,69.7,30.08,ENE,72,0.0,0.0,82,0.00,,SCT070,0.00,VWS V14.01,2013-07-04 00:34:00,
2013-07-03 20:39:00,75.4,69.9,30.08,ENE,72,0.0,0.0,83,0.00,,SCT070,0.00,VWS V14.01,2013-07-04 00:39:00,
2013-07-03 20:44:00,75.3,69.8,30.08,ENE,72,0.0,0.0,83,0.00,,SCT070,0.00,VWS V14.01,2013-07-04 00:44:00,
2013-07-03 20:45:00,75.3,69.8,30.08,ENE,72,0.0,0.0,83,0.00,,OVC018,0.00,VWS V14.01,2013-07-04 00:45:00,
2013-07-03 20:49:00,75.3,69.8,30.08,ENE,72,0.0,0.0,83,0.00,,SCT070,0.00,VWS V14.01,2013-07-04 00:49:00,
2013-07-03 20:55:00,75.1,69.9,30.08,ENE,72,0.0,0.0,84,0.00,,SCT070,0.00,VWS V14.01,2013-07-04 00:55:00,
2013-07-03 21:00:00,74.9,69.7,30.08,ENE,72,0.0,0.0,84,0.00,,SCT070,0.00,VWS V14.01,2013-07-04 01:00:00,
2013-07-03 21:05:00,74.7,69.6,30.08,ENE,72,0.0,0.0,84,0.00,,SCT070,0.00,VWS V14.01,2013-07-04 01:05:00,
2013-07-03 21:10:00,74.6,69.8,30.08,ENE,72,0.0,0.0,85,0.00,,SCT070,0.00,VWS V14.01,2013-07-04 01:10:00,
2013-07-03 21:15:00,74.4,69.6,30.09,ENE,72,0.0,0.0,85,0.00,,SCT070,0.00,VWS V14.01,2013-07-04 01:15:00,
2013-07-03 21:20:00,74.2,69.8,30.09,SE,136,0.0,2.0,86,0.00,,FEW110,0.00,VWS V14.01,2013-07-04 01:20:00,
2013-07-03 21:26:00,74.0,69.6,30.09,SSE,162,0.0,2.0,86,0.00,,FEW110,0.00,VWS V14.01,2013-07-04 01:26:00,
2013-07-03 21:30:00,73.9,69.4,30.10,SSE,164,0.0,0.0,86,0.00,,FEW110,0.00,VWS V14.01,2013-07-04 01:30:00,
2013-07-03 21:36:00,73.9,69.4,30.10,SSE,161,0.0,1.0,86,0.00,,FEW110,0.00,VWS V14.01,2013-07-04 01:36:00,
2013-07-03 21:41:00,73.9,69.8,30.10,SSE,161,0.0,1.0,87,0.00,,FEW110,0.00,VWS V14.01,2013-07-04 01:41:00,
2013-07-03 21:45:00,73.9,69.8,30.10,SSE,161,0.0,0.0,87,0.00,,OVC018,0.00,VWS V14.01,2013-07-04 01:45:00,
2013-07-03 21:46:00,73.7,69.6,30.10,SSE,161,0.0,0.0,87,0.00,,FEW110,0.00,VWS V14.01,2013-07-04 01:46:00,
2013-07-03 21:51:00,73.5,69.4,30.10,SSE,167,0.0,0.0,87,0.00,,FEW110,0.00,VWS V14.01,2013-07-04 01:51:00,
2013-07-03 21:56:00,73.5,69.4,30.10,SSE,167,0.0,0.0,87,0.00,,FEW110,0.00,VWS V14.01,2013-07-04 01:56:00,
2013-07-03 22:00:00,73.3,69.2,30.10,SSE,167,0.0,1.0,87,0.00,,OVC018,0.00,VWS V14.01,2013-07-04 02:00:00,
2013-07-03 22:02:00,73.3,69.2,30.10,SSE,167,0.0,1.0,87,0.00,,FEW110,0.00,VWS V14.01,2013-07-04 02:02:00,
2013-07-03 22:07:00,73.2,69.1,30.10,SSE,167,0.0,1.0,87,0.00,,BKN049,0.00,VWS V14.01,2013-07-04 02:07:00,
2013-07-03 22:12:00,73.0,69.2,30.10,SSE,167,0.0,0.0,88,0.00,,BKN049,0.00,VWS V14.01,2013-07-04 02:12:00,
2013-07-03 22:15:00,72.8,69.0,30.10,SSE,167,0.0,0.0,88,0.00,,OVC018,0.00,VWS V14.01,2013-07-04 02:15:00,
2013-07-03 22:17:00,72.8,69.0,30.10,SSE,167,0.0,0.0,88,0.00,,BKN049,0.00,VWS V14.01,2013-07-04 02:17:00,
2013-07-03 22:22:00,72.7,69.3,30.10,SSE,167,0.0,0.0,89,0.00,,BKN049,0.00,VWS V14.01,2013-07-04 02:22:00,
2013-07-03 22:27:00,72.7,69.3,30.10,SSE,165,0.0,0.0,89,0.00,,BKN049,0.00,VWS V14.01,2013-07-04 02:27:00,
2013-07-03 22:30:00,72.7,69.3,30.09,SSE,167,0.0,0.0,89,0.00,,OVC018,0.00,VWS V14.01,2013-07-04 02:30:00,
2013-07-03 22:32:00,72.5,69.1,30.09,SSE,167,0.0,0.0,89,0.00,,BKN049,0.00,VWS V14.01,2013-07-04 02:32:00,
2013-07-03 22:37:00,72.5,69.4,30.09,SSE,167,0.0,0.0,90,0.00,,BKN049,0.00,VWS V14.01,2013-07-04 02:37:00,
2013-07-03 22:42:00,72.3,69.2,30.09,SSE,165,0.0,0.0,90,0.00,,BKN049,0.00,VWS V14.01,2013-07-04 02:42:00,
2013-07-03 22:45:00,72.3,69.2,30.09,SSE,167,0.0,0.0,90,0.00,,OVC018,0.00,VWS V14.01,2013-07-04 02:45:00,
2013-07-03 22:48:00,72.3,69.2,30.09,SSE,167,0.0,0.0,90,0.00,,BKN049,0.00,VWS V14.01,2013-07-04 02:48:00,
2013-07-03 22:53:00,72.3,69.2,30.09,SSE,167,0.0,0.0,90,0.00,,BKN049,0.00,VWS V14.01,2013-07-04 02:53:00,
2013-07-03 22:58:00,72.3,69.2,30.09,SSE,167,0.0,0.0,90,0.00,,BKN049,0.00,VWS V14.01,2013-07-04 02:58:00,
2013-07-03 23:00:00,72.3,69.2,30.10,SSE,167,0.0,0.0,90,0.00,,OVC018,0.00,VWS V14.01,2013-07-04 03:00:00,
2013-07-03 23:03:00,72.1,69.0,30.10,SSE,167,0.0,0.0,90,0.00,,BKN049,0.00,VWS V14.01,2013-07-04 03:03:00,
2013-07-03 23:08:00,72.1,69.0,30.10,SSE,167,0.0,1.0,90,0.00,,BKN049,0.00,VWS V14.01,2013-07-04 03:08:00,
2013-07-03 23:14:00,72.1,69.3,30.10,SSE,167,0.0,1.0,91,0.00,,BKN049,0.00,VWS V14.01,2013-07-04 03:14:00,
2013-07-03 23:15:00,72.1,69.3,30.10,SSE,167,0.0,0.0,91,0.00,,OVC018,0.00,VWS V14.01,2013-07-04 03:15:00,
2013-07-03 23:19:00,72.1,69.3,30.10,SSE,167,0.0,0.0,91,0.00,,BKN049,0.00,VWS V14.01,2013-07-04 03:19:00,
2013-07-03 23:24:00,72.1,69.3,30.10,SSE,167,0.0,0.0,91,0.00,,BKN049,0.00,VWS V14.01,2013-07-04 03:24:00,
2013-07-03 23:29:00,72.1,69.3,30.10,SSE,167,0.0,0.0,91,0.00,,BKN049,0.00,VWS V14.01,2013-07-04 03:29:00,
2013-07-03 23:30:00,72.1,69.3,30.10,SSE,167,0.0,0.0,91,0.00,,OVC018,0.00,VWS V14.01,2013-07-04 03:30:00,
2013-07-03 23:34:00,72.1,69.3,30.10,SSE,167,0.0,0.0,91,0.00,,BKN049,0.00,VWS V14.01,2013-07-04 03:34:00,
2013-07-03 23:39:00,72.1,69.3,30.10,SSE,167,0.0,0.0,91,0.00,,BKN049,0.00,VWS V14.01,2013-07-04 03:39:00,
2013-07-03 23:44:00,72.1,69.3,30.10,SSE,167,0.0,0.0,91,0.00,,BKN049,0.00,VWS V14.01,2013-07-04 03:44:00,
2013-07-03 23:45:00,72.1,69.3,30.10,SSE,167,0.0,0.0,91,0.00,,OVC018,0.00,VWS V14.01,2013-07-04 03:45:00,
2013-07-03 23:50:00,72.1,69.3,30.10,SSE,167,0.0,0.0,91,0.00,,BKN049,0.00,VWS V14.01,2013-07-04 03:50:00,
2013-07-03 23:55:00,72.1,69.3,30.10,SSE,167,0.0,0.0,91,0.00,,BKN049,0.00,VWS V14.01,2013-07-04 03:55:00,